createdAt,value
2018-06-08T00:00:06.816Z,100971.56
2018-06-08T00:01:12.406Z,100975.80
2018-06-08T00:02:17.850Z,100970.68
2018-06-08T00:03:23.306Z,100976.09
2018-06-08T00:04:28.745Z,100971.83
2018-06-08T00:05:34.203Z,100977.72
2018-06-08T00:06:39.661Z,100972.02
2018-06-08T00:07:45.081Z,100976.41
2018-06-08T00:08:50.480Z,100973.90
2018-06-08T00:09:55.953Z,100971.87
2018-06-08T00:11:01.350Z,100966.08
2018-06-08T00:12:06.835Z,100973.67
2018-06-08T00:13:12.353Z,100971.29
2018-06-08T00:14:17.758Z,100967.09
2018-06-08T00:15:23.414Z,100964.91
2018-06-08T00:16:29.102Z,100972.98
2018-06-08T00:17:34.561Z,100965.00
2018-06-08T00:18:40.001Z,100970.22
2018-06-08T00:19:45.430Z,100968.66
2018-06-08T00:20:50.866Z,100972.19
2018-06-08T00:21:56.320Z,100971.61
2018-06-08T00:23:01.842Z,100971.36
2018-06-08T00:24:07.316Z,100970.19
2018-06-08T00:25:12.763Z,100970.28
2018-06-08T00:26:18.473Z,100970.19
2018-06-08T00:27:23.913Z,100966.63
2018-06-08T00:28:29.377Z,100972.31
2018-06-08T00:29:34.809Z,100969.36
2018-06-08T00:30:40.233Z,100969.45
2018-06-08T00:31:45.640Z,100970.38
2018-06-08T00:32:51.058Z,100972.73
2018-06-08T00:33:56.556Z,100973.37
2018-06-08T00:35:02.039Z,100972.54
2018-06-08T00:36:07.910Z,100971.52
2018-06-08T00:37:13.337Z,100969.30
2018-06-08T00:38:18.762Z,100968.91
2018-06-08T00:39:24.175Z,100972.28
2018-06-08T00:40:29.603Z,100968.37
2018-06-08T00:41:35.069Z,100964.64
2018-06-08T00:42:40.490Z,100969.51
2018-06-08T00:43:45.926Z,100962.70
2018-06-08T00:44:51.559Z,100966.61
2018-06-08T00:45:57.087Z,100966.36
2018-06-08T00:47:02.920Z,100960.21
2018-06-08T00:48:08.379Z,100959.58
2018-06-08T00:49:13.788Z,100966.34
2018-06-08T00:50:19.249Z,100963.01
2018-06-08T00:51:24.691Z,100958.71
2018-06-08T00:52:30.211Z,100963.20
2018-06-08T00:53:35.606Z,100955.87
2018-06-08T00:54:41.029Z,100961.64
2018-06-08T00:55:46.458Z,100955.21
2018-06-08T00:57:05.517Z,100958.31
2018-06-08T00:58:10.945Z,100959.06
2018-06-08T00:59:16.378Z,100962.41
2018-06-08T01:00:21.805Z,100961.49
2018-06-08T01:01:27.274Z,100961.49
2018-06-08T01:02:32.749Z,100960.62
2018-06-08T01:03:38.219Z,100959.16
2018-06-08T01:04:43.695Z,100964.19
2018-06-08T01:05:49.126Z,100961.20
2018-06-08T01:06:54.556Z,100956.81
2018-06-08T01:08:00.737Z,100962.24
2018-06-08T01:09:09.498Z,100957.80
2018-06-08T01:10:14.934Z,100961.81
2018-06-08T01:11:20.354Z,100957.25
2018-06-08T01:12:25.807Z,100964.41
2018-06-08T01:13:31.250Z,100964.16
2018-06-08T01:14:36.684Z,100960.52
2018-06-08T01:15:42.945Z,100960.91
2018-06-08T01:16:48.509Z,100962.11
2018-06-08T01:17:53.929Z,100961.72
2018-06-08T01:18:59.346Z,100966.45
2018-06-08T01:20:05.101Z,100960.98
2018-06-08T01:21:10.518Z,100963.67
2018-06-08T01:22:15.958Z,100962.47
2018-06-08T01:23:21.382Z,100964.50
2018-06-08T01:24:26.827Z,100963.59
2018-06-08T01:25:32.376Z,100960.91
2018-06-08T01:26:37.793Z,100960.81
2018-06-08T01:27:43.289Z,100959.30
2018-06-08T01:28:48.731Z,100960.25
2018-06-08T01:29:54.425Z,100960.67
2018-06-08T01:30:59.979Z,100962.36
2018-06-08T01:32:05.437Z,100961.23
2018-06-08T01:33:10.869Z,100960.50
2018-06-08T01:34:16.286Z,100958.72
2018-06-08T01:35:22.034Z,100957.53
2018-06-08T01:36:27.474Z,100948.69
2018-06-08T01:37:32.918Z,100957.62
2018-06-08T01:38:38.370Z,100955.77
2018-06-08T01:39:43.817Z,100954.95
2018-06-08T01:40:49.431Z,100950.92
2018-06-08T01:41:54.848Z,100957.65
2018-06-08T01:43:00.325Z,100951.23
2018-06-08T01:44:06.379Z,100952.70
2018-06-08T01:45:11.877Z,100951.70
2018-06-08T01:46:17.331Z,100948.98
2018-06-08T01:47:22.762Z,100944.81
2018-06-08T01:48:28.213Z,100951.63
2018-06-08T01:49:33.982Z,100947.16
2018-06-08T01:50:39.385Z,100949.11
2018-06-08T01:51:44.861Z,100942.78
2018-06-08T01:52:50.286Z,100947.59
2018-06-08T01:53:55.888Z,100950.68
2018-06-08T01:55:01.429Z,100943.05
2018-06-08T01:56:06.857Z,100944.56
2018-06-08T01:57:12.294Z,100943.43
2018-06-08T01:58:17.728Z,100945.92
2018-06-08T01:59:23.281Z,100943.23
2018-06-08T02:00:28.752Z,100946.75
2018-06-08T02:01:34.208Z,100942.10
2018-06-08T02:02:39.629Z,100947.13
2018-06-08T02:03:45.071Z,100943.41
2018-06-08T02:04:50.547Z,100955.03
2018-06-08T02:05:56.173Z,100950.30
2018-06-08T02:07:01.611Z,100954.00
2018-06-08T02:08:07.010Z,100949.73
2018-06-08T02:09:12.925Z,100946.19
2018-06-08T02:10:18.358Z,100940.54
2018-06-08T02:11:23.820Z,100946.31
2018-06-08T02:12:29.530Z,100945.27
2018-06-08T02:13:34.937Z,100942.84
2018-06-08T02:14:40.373Z,100945.36
2018-06-08T02:15:45.839Z,100941.28
2018-06-08T02:16:51.290Z,100941.63
2018-06-08T02:17:56.906Z,100942.02
2018-06-08T02:19:02.468Z,100941.93
2018-06-08T02:20:07.930Z,100940.16
2018-06-08T02:21:13.373Z,100938.67
2018-06-08T02:22:18.998Z,100938.02
2018-06-08T02:23:24.429Z,100938.02
2018-06-08T02:24:29.859Z,100936.42
2018-06-08T02:25:35.359Z,100940.06
2018-06-08T02:26:40.771Z,100943.97
2018-06-08T02:27:46.411Z,100946.19
2018-06-08T02:28:51.857Z,100940.45
2018-06-08T02:29:57.256Z,100944.23
2018-06-08T02:31:02.724Z,100935.69
2018-06-08T02:32:08.308Z,100934.47
2018-06-08T02:33:14.004Z,100938.67
2018-06-08T02:34:19.428Z,100941.84
2018-06-08T02:35:24.875Z,100935.59
2018-06-08T02:36:30.544Z,100937.20
2018-06-08T02:37:35.963Z,100950.30
2018-06-08T02:38:41.414Z,100944.36
2018-06-08T02:39:46.861Z,100950.21
2018-06-08T02:40:52.377Z,100947.22
2018-06-08T02:41:57.808Z,100943.41
2018-06-08T02:43:03.248Z,100950.56
2018-06-08T02:44:08.817Z,100946.66
2018-06-08T02:45:14.271Z,100940.71
2018-06-08T02:46:19.764Z,100948.79
2018-06-08T02:47:25.260Z,100947.88
2018-06-08T02:48:30.693Z,100948.05
2018-06-08T02:49:36.188Z,100949.83
2018-06-08T02:50:41.594Z,100948.44
2018-06-08T02:51:47.144Z,100948.60
2018-06-08T02:52:52.585Z,100945.44
2018-06-08T02:53:58.030Z,100950.94
2018-06-08T02:55:03.565Z,100955.66
2018-06-08T02:56:09.010Z,100952.59
2018-06-08T02:57:14.677Z,100951.94
2018-06-08T02:58:20.109Z,100954.44
2018-06-08T02:59:25.613Z,100959.36
2018-06-08T03:00:31.086Z,100959.05
2018-06-08T03:01:36.649Z,100960.47
2018-06-08T03:02:42.085Z,100955.27
2018-06-08T03:03:47.546Z,100967.97
2018-06-08T03:04:52.965Z,100962.01
2018-06-08T03:05:58.462Z,100964.52
2018-06-08T03:07:03.943Z,100964.86
2018-06-08T03:08:09.416Z,100962.23
2018-06-08T03:09:14.823Z,100965.50
2018-06-08T03:10:20.227Z,100966.02
2018-06-08T03:11:25.653Z,100968.27
2018-06-08T03:12:31.090Z,100968.62
2018-06-08T03:13:36.639Z,100972.25
2018-06-08T03:14:42.082Z,100970.75
2018-06-08T03:15:47.274Z,100967.49
2018-06-08T03:16:52.621Z,100967.97
2018-06-08T03:17:58.057Z,100971.56
2018-06-08T03:19:04.002Z,100968.48
2018-06-08T03:20:09.475Z,100970.73
2018-06-08T03:21:14.882Z,100966.91
2018-06-08T03:22:20.338Z,100970.17
2018-06-08T03:23:25.772Z,100963.13
2018-06-08T03:24:31.360Z,100964.70
2018-06-08T03:25:36.788Z,100962.51
2018-06-08T03:26:42.701Z,100963.72
2018-06-08T03:27:48.221Z,100962.31
2018-06-08T03:28:53.622Z,100964.20
2018-06-08T03:29:59.085Z,100962.78
2018-06-08T03:31:04.525Z,100963.39
2018-06-08T03:32:09.984Z,100965.27
2018-06-08T03:33:15.392Z,100966.48
2018-06-08T03:34:20.939Z,100964.55
2018-06-08T03:35:26.773Z,100965.09
2018-06-08T03:36:32.309Z,100961.30
2018-06-08T03:37:37.762Z,100961.57
2018-06-08T03:38:43.186Z,100961.79
2018-06-08T03:39:48.358Z,100962.89
2018-06-08T03:40:53.690Z,100959.20
2018-06-08T03:41:59.242Z,100962.25
2018-06-08T03:43:04.873Z,100959.39
2018-06-08T03:44:10.284Z,100960.96
2018-06-08T03:45:15.805Z,100956.97
2018-06-08T03:46:21.217Z,100959.58
2018-06-08T03:47:26.648Z,100957.89
2018-06-08T03:48:32.125Z,100960.50
2018-06-08T03:49:37.526Z,100956.33
2018-06-08T03:50:42.978Z,100958.76
2018-06-08T03:51:48.370Z,100959.02
2018-06-08T03:52:53.817Z,100958.94
2018-06-08T03:53:59.363Z,100959.32
2018-06-08T03:55:05.066Z,100960.06
2018-06-08T03:56:10.471Z,100959.98
2018-06-08T03:57:15.896Z,100959.67
2018-06-08T03:58:21.321Z,100960.51
2018-06-08T03:59:26.742Z,100961.55
2018-06-08T04:00:32.185Z,100958.02
2018-06-08T04:01:37.623Z,100962.93
2018-06-08T04:02:43.025Z,100959.31
2018-06-08T04:03:48.471Z,100959.31
2018-06-08T04:04:53.984Z,100957.63
2018-06-08T04:05:59.429Z,100958.55
2018-06-08T04:07:04.965Z,100958.45
2018-06-08T04:08:10.406Z,100964.23
2018-06-08T04:09:15.821Z,100964.88
2018-06-08T04:10:21.274Z,100965.53
2018-06-08T04:11:26.727Z,100963.84
2018-06-08T04:12:32.167Z,100958.20
2018-06-08T04:13:37.574Z,100961.02
2018-06-08T04:14:42.998Z,100961.57
2018-06-08T04:15:48.458Z,100959.80
2018-06-08T04:16:53.915Z,100962.04
2018-06-08T04:17:59.452Z,100962.86
2018-06-08T04:19:04.914Z,100959.95
2018-06-08T04:20:10.330Z,100963.21
2018-06-08T04:21:15.910Z,100966.30
2018-06-08T04:22:21.333Z,100963.13
2018-06-08T04:23:26.861Z,100965.63
2018-06-08T04:24:32.292Z,100963.30
2018-06-08T04:25:37.710Z,100963.20
2018-06-08T04:26:43.305Z,100964.24
2018-06-08T04:27:48.712Z,100964.16
2018-06-08T04:28:54.161Z,100963.52
2018-06-08T04:29:59.597Z,100966.38
2018-06-08T04:31:05.025Z,100969.81
2018-06-08T04:32:10.482Z,100973.37
2018-06-08T04:33:15.950Z,100974.02
2018-06-08T04:34:21.365Z,100973.64
2018-06-08T04:35:26.961Z,100973.11
2018-06-08T04:36:32.470Z,100971.25
2018-06-08T04:37:37.881Z,100962.87
2018-06-08T04:38:43.335Z,100964.83
2018-06-08T04:39:48.973Z,100965.00
2018-06-08T04:40:54.401Z,100967.44
2018-06-08T04:41:59.822Z,100971.34
2018-06-08T04:43:05.253Z,100972.47
2018-06-08T04:44:10.705Z,100970.27
2018-06-08T04:45:16.121Z,100974.17
2018-06-08T04:46:21.539Z,100970.86
2018-06-08T04:47:26.984Z,100977.25
2018-06-08T04:48:32.427Z,100981.34
2018-06-08T04:49:37.861Z,100980.98
2018-06-08T04:50:43.269Z,100978.08
2018-06-08T04:51:48.672Z,100977.34
2018-06-08T04:52:54.245Z,100976.69
2018-06-08T04:53:59.758Z,100980.51
2018-06-08T04:55:05.656Z,100989.89
2018-06-08T04:56:11.063Z,100986.19
2018-06-08T04:57:21.459Z,100984.67
2018-06-08T04:58:27.413Z,100981.98
2018-06-08T04:59:32.862Z,100988.58
2018-06-08T05:00:38.400Z,100990.36
2018-06-08T05:01:43.957Z,100984.67
2018-06-08T05:02:49.406Z,100991.96
2018-06-08T05:03:54.838Z,100991.75
2018-06-08T05:05:00.282Z,100992.05
2018-06-08T05:06:05.971Z,100996.52
2018-06-08T05:07:11.380Z,100989.45
2018-06-08T05:08:16.859Z,100994.00
2018-06-08T05:09:22.303Z,100990.45
2018-06-08T05:10:27.721Z,100990.84
2018-06-08T05:11:33.159Z,100995.39
2018-06-08T05:12:38.658Z,100992.78
2018-06-08T05:13:44.146Z,100998.77
2018-06-08T05:14:49.588Z,100994.77
2018-06-08T05:15:55.018Z,100996.16
2018-06-08T05:17:00.626Z,100996.43
2018-06-08T05:18:06.060Z,101001.94
2018-06-08T05:19:11.907Z,100997.38
2018-06-08T05:20:17.378Z,101005.55
2018-06-08T05:21:22.798Z,100997.73
2018-06-08T05:22:28.246Z,101004.16
2018-06-08T05:23:33.706Z,101001.55
2018-06-08T05:24:39.157Z,101002.94
2018-06-08T05:25:44.615Z,101009.36
2018-06-08T05:26:50.096Z,101005.45
2018-06-08T05:27:55.529Z,101004.36
2018-06-08T05:29:10.907Z,101005.67
2018-06-08T05:30:18.993Z,101001.46
2018-06-08T05:31:24.426Z,101001.20
2018-06-08T05:32:30.107Z,100999.03
2018-06-08T05:33:35.621Z,100997.94
2018-06-08T05:34:41.076Z,101000.81
2018-06-08T05:35:54.844Z,100991.42
2018-06-08T05:37:04.014Z,100998.67
2018-06-08T05:38:09.474Z,100996.16
2018-06-08T05:39:14.889Z,100993.38
2018-06-08T05:40:20.461Z,100990.95
2018-06-08T05:41:25.986Z,100996.81
2018-06-08T05:42:31.870Z,100992.73
2018-06-08T05:43:37.294Z,100989.47
2018-06-08T05:44:42.725Z,100991.77
2018-06-08T05:45:48.149Z,100994.94
2018-06-08T05:46:53.592Z,101000.70
2018-06-08T05:47:59.637Z,101000.05
2018-06-08T05:49:05.172Z,100995.48
2018-06-08T05:50:10.579Z,100996.13
2018-06-08T05:51:15.973Z,100999.30
2018-06-08T05:52:21.410Z,101005.41
2018-06-08T05:53:27.362Z,101000.44
2018-06-08T05:54:32.793Z,100999.78
2018-06-08T05:55:38.254Z,101000.91
2018-06-08T05:56:43.665Z,101005.53
2018-06-08T05:57:49.126Z,101005.63
2018-06-08T05:58:54.941Z,101006.09
2018-06-08T06:00:00.502Z,101010.73
2018-06-08T06:01:06.296Z,101007.46
2018-06-08T06:02:11.713Z,101004.66
2018-06-08T06:03:17.139Z,101007.27
2018-06-08T06:04:22.581Z,101013.41
2018-06-08T06:05:28.021Z,101009.91
2018-06-08T06:06:33.457Z,101008.41
2018-06-08T06:07:38.877Z,101008.09
2018-06-08T06:08:44.285Z,101004.44
2018-06-08T06:09:49.782Z,101012.86
2018-06-08T06:10:55.223Z,101012.03
2018-06-08T06:12:00.674Z,101008.60
2018-06-08T06:13:06.399Z,101013.72
2018-06-08T06:14:11.841Z,101015.59
2018-06-08T06:15:17.288Z,101016.77
2018-06-08T06:16:22.698Z,101015.59
2018-06-08T06:17:28.272Z,101017.98
2018-06-08T06:18:33.897Z,101018.72
2018-06-08T06:19:39.346Z,101022.09
2018-06-08T06:20:44.777Z,101016.56
2018-06-08T06:21:50.226Z,101022.33
2018-06-08T06:22:55.645Z,101016.25
2018-06-08T06:24:01.080Z,101018.06
2018-06-08T06:25:07.194Z,101020.55
2018-06-08T06:26:12.792Z,101012.05
2018-06-08T06:27:18.223Z,101019.30
2018-06-08T06:28:23.713Z,101021.88
2018-06-08T06:29:29.240Z,101018.59
2018-06-08T06:30:34.685Z,101018.11
2018-06-08T06:31:39.997Z,101020.48
2018-06-08T06:32:45.335Z,101021.45
2018-06-08T06:33:50.765Z,101026.98
2018-06-08T06:34:56.179Z,101021.45
2018-06-08T06:36:01.617Z,101022.44
2018-06-08T06:37:07.233Z,101024.65
2018-06-08T06:38:12.670Z,101022.77
2018-06-08T06:39:17.772Z,101023.79
2018-06-08T06:40:23.314Z,101025.28
2018-06-08T06:41:28.769Z,101032.30
2018-06-08T06:42:34.885Z,101029.49
2018-06-08T06:43:40.325Z,101026.16
2018-06-08T06:44:45.785Z,101028.86
2018-06-08T06:45:51.226Z,101027.31
2018-06-08T06:46:56.665Z,101023.73
2018-06-08T06:48:02.501Z,101033.11
2018-06-08T06:49:07.979Z,101033.73
2018-06-08T06:50:13.104Z,101032.98
2018-06-08T06:51:18.545Z,101031.23
2018-06-08T06:52:24.026Z,101038.33
2018-06-08T06:53:30.034Z,101044.28
2018-06-08T06:54:35.461Z,101041.29
2018-06-08T06:55:40.922Z,101038.62
2018-06-08T06:56:46.426Z,101039.20
2018-06-08T06:57:51.849Z,101041.08
2018-06-08T06:58:57.517Z,101037.27
2018-06-08T07:00:03.012Z,101038.72
2018-06-08T07:01:08.432Z,101044.48
2018-06-08T07:02:13.865Z,101044.62
2018-06-08T07:03:19.329Z,101046.16
2018-06-08T07:04:24.833Z,101049.32
2018-06-08T07:05:30.298Z,101043.75
2018-06-08T07:06:35.866Z,101050.81
2018-06-08T07:07:41.338Z,101048.64
2018-06-08T07:08:46.788Z,101044.42
2018-06-08T07:09:52.190Z,101043.11
2018-06-08T07:10:57.683Z,101043.95
2018-06-08T07:12:03.154Z,101042.39
2018-06-08T07:13:09.151Z,101048.14
2018-06-08T07:14:19.263Z,101039.83
2018-06-08T07:15:25.354Z,101041.86
2018-06-08T07:16:30.918Z,101050.17
2018-06-08T07:17:36.369Z,101049.07
2018-06-08T07:18:41.893Z,101046.36
2018-06-08T07:19:47.299Z,101051.39
2018-06-08T07:20:52.754Z,101056.13
2018-06-08T07:21:58.182Z,101053.04
2018-06-08T07:23:03.625Z,101050.23
2018-06-08T07:24:09.269Z,101047.34
2018-06-08T07:25:14.890Z,101058.27
2018-06-08T07:26:20.314Z,101051.93
2018-06-08T07:27:25.787Z,101051.05
2018-06-08T07:28:31.235Z,101057.48
2018-06-08T07:29:36.689Z,101053.91
2018-06-08T07:30:42.135Z,101063.28
2018-06-08T07:31:47.770Z,101059.55
2018-06-08T07:32:53.181Z,101062.55
2018-06-08T07:33:58.686Z,101057.19
2018-06-08T07:35:04.258Z,101065.92
2018-06-08T07:36:09.710Z,101058.72
2018-06-08T07:37:15.125Z,101058.98
2018-06-08T07:38:20.561Z,101055.89
2018-06-08T07:39:25.985Z,101053.85
2018-06-08T07:40:31.587Z,101063.22
2018-06-08T07:41:37.161Z,101061.05
2018-06-08T07:42:42.762Z,101062.73
2018-06-08T07:43:48.206Z,101061.23
2018-06-08T07:44:53.629Z,101059.08
2018-06-08T07:45:59.472Z,101055.89
2018-06-08T07:47:04.951Z,101058.16
2018-06-08T07:48:10.390Z,101053.13
2018-06-08T07:49:15.808Z,101054.33
2018-06-08T07:50:21.240Z,101052.83
2018-06-08T07:51:26.678Z,101052.20
2018-06-08T07:52:32.118Z,101046.69
2018-06-08T07:53:37.610Z,101049.53
2018-06-08T07:54:43.046Z,101047.75
2018-06-08T07:55:48.518Z,101049.88
2018-06-08T07:56:53.938Z,101048.28
2018-06-08T07:57:59.489Z,101046.65
2018-06-08T07:59:05.045Z,101050.17
2018-06-08T08:00:10.509Z,101049.60
2018-06-08T08:01:15.961Z,101053.77
2018-06-08T08:02:21.414Z,101051.54
2018-06-08T08:03:26.834Z,101051.83
2018-06-08T08:04:32.294Z,101050.47
2018-06-08T08:05:37.709Z,101048.28
2018-06-08T08:06:43.165Z,101048.67
2018-06-08T08:07:48.710Z,101049.88
2018-06-08T08:08:54.134Z,101052.72
2018-06-08T08:09:59.666Z,101048.16
2018-06-08T08:11:05.106Z,101047.41
2018-06-08T08:12:10.537Z,101045.84
2018-06-08T08:13:16.106Z,101045.84
2018-06-08T08:14:21.570Z,101044.83
2018-06-08T08:15:26.985Z,101042.44
2018-06-08T08:16:32.488Z,101047.95
2018-06-08T08:17:37.925Z,101046.77
2018-06-08T08:18:43.421Z,101038.94
2018-06-08T08:19:48.871Z,101036.45
2018-06-08T08:20:54.336Z,101045.94
2018-06-08T08:21:59.886Z,101047.63
2018-06-08T08:23:05.321Z,101043.91
2018-06-08T08:24:11.130Z,101041.86
2018-06-08T08:25:16.771Z,101049.21
2018-06-08T08:26:22.693Z,101051.16
2018-06-08T08:27:28.184Z,101055.61
2018-06-08T08:28:33.611Z,101053.89
2018-06-08T08:29:39.132Z,101057.23
2018-06-08T08:30:44.577Z,101064.11
2018-06-08T08:31:50.110Z,101059.56
2018-06-08T08:32:55.538Z,101060.84
2018-06-08T08:34:01.017Z,101063.70
2018-06-08T08:35:06.524Z,101060.64
2018-06-08T08:36:12.381Z,101063.31
2018-06-08T08:37:17.811Z,101061.28
2018-06-08T08:38:23.222Z,101067.16
2018-06-08T08:39:28.729Z,101061.53
2018-06-08T08:40:34.298Z,101062.05
2018-06-08T08:41:39.835Z,101065.29
2018-06-08T08:42:45.243Z,101065.79
2018-06-08T08:43:50.834Z,101070.69
2018-06-08T08:44:56.262Z,101072.34
2018-06-08T08:46:01.797Z,101072.29
2018-06-08T08:47:07.502Z,101075.01
2018-06-08T08:48:12.989Z,101070.66
2018-06-08T08:49:18.529Z,101072.20
2018-06-08T08:50:24.117Z,101074.00
2018-06-08T08:51:29.716Z,101068.17
2018-06-08T08:52:35.297Z,101067.87
2018-06-08T08:53:40.955Z,101068.29
2018-06-08T08:54:46.352Z,101067.50
2018-06-08T08:55:51.789Z,101068.23
2018-06-08T08:56:57.306Z,101076.03
2018-06-08T08:58:02.746Z,101076.70
2018-06-08T08:59:08.172Z,101079.66
2018-06-08T09:00:13.810Z,101076.66
2018-06-08T09:01:19.250Z,101083.23
2018-06-08T09:02:24.774Z,101081.14
2018-06-08T09:03:30.221Z,101083.20
2018-06-08T09:04:35.654Z,101076.23
2018-06-08T09:05:41.110Z,101078.88
2018-06-08T09:06:46.541Z,101074.44
2018-06-08T09:07:51.992Z,101077.22
2018-06-08T09:08:57.477Z,101077.46
2018-06-08T09:10:02.987Z,101078.22
2018-06-08T09:11:08.458Z,101076.97
2018-06-08T09:12:13.881Z,101072.22
2018-06-08T09:13:19.203Z,101067.81
2018-06-08T09:14:24.569Z,101074.16
2018-06-08T09:15:30.137Z,101068.29
2018-06-08T09:16:35.950Z,101072.41
2018-06-08T09:17:41.387Z,101072.43
2018-06-08T09:18:46.812Z,101067.33
2018-06-08T09:19:52.258Z,101071.66
2018-06-08T09:20:57.717Z,101070.15
2018-06-08T09:22:03.181Z,101081.84
2018-06-08T09:23:08.593Z,101079.72
2018-06-08T09:24:14.017Z,101078.55
2018-06-08T09:25:19.439Z,101079.72
2018-06-08T09:26:24.934Z,101083.12
2018-06-08T09:27:30.460Z,101089.02
2018-06-08T09:28:35.924Z,101091.83
2018-06-08T09:29:41.407Z,101099.39
2018-06-08T09:30:46.862Z,101106.67
2018-06-08T09:31:52.401Z,101106.47
2018-06-08T09:32:57.870Z,101111.86
2018-06-08T09:34:03.339Z,101099.58
2018-06-08T09:35:08.849Z,101099.70
2018-06-08T09:36:14.364Z,101103.22
2018-06-08T09:37:19.983Z,101098.91
2018-06-08T09:38:25.449Z,101099.99
2018-06-08T09:39:30.986Z,101103.58
2018-06-08T09:40:36.491Z,101103.56
2018-06-08T09:41:41.915Z,101104.77
2018-06-08T09:42:47.684Z,101107.36
2018-06-08T09:43:53.129Z,101109.16
2018-06-08T09:44:58.577Z,101108.65
2018-06-08T09:46:04.020Z,101110.90
2018-06-08T09:47:09.462Z,101104.73
2018-06-08T09:48:14.928Z,101111.73
2018-06-08T09:49:20.337Z,101109.11
2018-06-08T09:50:25.922Z,101106.08
2018-06-08T09:51:31.369Z,101106.23
2018-06-08T09:52:36.786Z,101104.06
2018-06-08T09:53:42.285Z,101105.86
2018-06-08T09:54:47.788Z,101104.44
2018-06-08T09:55:53.676Z,101102.47
2018-06-08T09:56:59.221Z,101106.77
2018-06-08T09:58:04.725Z,101110.42
2018-06-08T09:59:10.117Z,101107.57
2018-06-08T10:00:19.593Z,101113.38
2018-06-08T10:01:25.042Z,101107.38
2018-06-08T10:02:30.487Z,101104.13
2018-06-08T10:03:35.981Z,101106.02
2018-06-08T10:04:41.425Z,101105.77
2018-06-08T10:05:46.861Z,101108.66
2018-06-08T10:06:52.362Z,101110.46
2018-06-08T10:07:57.825Z,101110.46
2018-06-08T10:09:03.312Z,101117.20
2018-06-08T10:10:08.834Z,101107.53
2018-06-08T10:11:14.323Z,101116.20
2018-06-08T10:12:19.953Z,101107.34
2018-06-08T10:13:25.407Z,101107.91
2018-06-08T10:14:30.826Z,101109.44
2018-06-08T10:15:36.274Z,101111.84
2018-06-08T10:16:41.766Z,101106.88
2018-06-08T10:17:47.626Z,101101.25
2018-06-08T10:18:53.094Z,101101.91
2018-06-08T10:19:58.674Z,101106.12
2018-06-08T10:21:04.201Z,101100.77
2018-06-08T10:22:09.645Z,101104.09
2018-06-08T10:23:15.097Z,101104.23
2018-06-08T10:24:20.492Z,101104.59
2018-06-08T10:25:25.917Z,101100.07
2018-06-08T10:26:31.853Z,101101.16
2018-06-08T10:27:37.314Z,101100.73
2018-06-08T10:28:42.717Z,101098.10
2018-06-08T10:29:48.289Z,101106.05
2018-06-08T10:30:53.730Z,101101.31
2018-06-08T10:31:59.444Z,101104.80
2018-06-08T10:33:04.907Z,101101.06
2018-06-08T10:34:10.442Z,101103.45
2018-06-08T10:35:15.886Z,101104.25
2018-06-08T10:36:21.305Z,101101.74
2018-06-08T10:37:27.853Z,101105.41
2018-06-08T10:38:33.403Z,101110.78
2018-06-08T10:39:38.821Z,101102.39
2018-06-08T10:40:44.264Z,101102.51
2018-06-08T10:41:49.708Z,101104.69
2018-06-08T10:42:55.172Z,101105.30
2018-06-08T10:44:00.921Z,101103.48
2018-06-08T10:45:06.614Z,101103.38
2018-06-08T10:46:12.185Z,101105.74
2018-06-08T10:47:17.618Z,101110.15
2018-06-08T10:48:23.264Z,101103.77
2018-06-08T10:49:28.691Z,101101.28
2018-06-08T10:50:34.268Z,101104.39
2018-06-08T10:51:39.685Z,101104.00
2018-06-08T10:52:45.156Z,101104.84
2018-06-08T10:53:50.593Z,101106.88
2018-06-08T10:54:56.044Z,101113.71
2018-06-08T10:56:03.965Z,101114.43
2018-06-08T10:57:16.223Z,101110.63
2018-06-08T10:58:21.713Z,101121.45
2018-06-08T10:59:27.287Z,101120.26
2018-06-08T11:00:32.886Z,101120.15
2018-06-08T11:01:38.015Z,101120.59
2018-06-08T11:02:43.390Z,101125.84
2018-06-08T11:03:48.820Z,101127.42
2018-06-08T11:04:54.420Z,101128.99
2018-06-08T11:06:00.221Z,101123.16
2018-06-08T11:07:05.951Z,101124.47
2018-06-08T11:08:11.371Z,101126.60
2018-06-08T11:09:16.871Z,101127.32
2018-06-08T11:10:22.316Z,101131.45
2018-06-08T11:11:27.822Z,101132.53
2018-06-08T11:12:33.424Z,101127.50
2018-06-08T11:13:38.863Z,101131.22
2018-06-08T11:14:44.276Z,101136.28
2018-06-08T11:15:49.761Z,101132.50
2018-06-08T11:16:55.181Z,101133.76
2018-06-08T11:18:00.690Z,101134.74
2018-06-08T11:19:06.309Z,101136.62
2018-06-08T11:20:11.742Z,101134.94
2018-06-08T11:21:17.602Z,101133.65
2018-06-08T11:22:23.055Z,101129.72
2018-06-08T11:23:28.488Z,101133.81
2018-06-08T11:24:33.982Z,101127.75
2018-06-08T11:25:39.413Z,101135.10
2018-06-08T11:26:45.351Z,101128.89
2018-06-08T11:27:50.785Z,101126.02
2018-06-08T11:28:56.217Z,101126.19
2018-06-08T11:30:01.851Z,101125.98
2018-06-08T11:31:07.292Z,101126.03
2018-06-08T11:32:12.727Z,101124.63
2018-06-08T11:33:18.209Z,101127.80
2018-06-08T11:34:23.737Z,101117.59
2018-06-08T11:35:29.541Z,101114.16
2018-06-08T11:36:35.011Z,101114.27
2018-06-08T11:37:40.498Z,101112.67
2018-06-08T11:38:45.924Z,101110.44
2018-06-08T11:39:51.445Z,101101.18
2018-06-08T11:40:56.930Z,101101.45
2018-06-08T11:42:02.829Z,101105.63
2018-06-08T11:43:08.304Z,101102.31
2018-06-08T11:44:13.840Z,101096.70
2018-06-08T11:45:19.322Z,101092.61
2018-06-08T11:46:24.757Z,101097.69
2018-06-08T11:47:30.250Z,101101.61
2018-06-08T11:48:35.727Z,101102.88
2018-06-08T11:49:41.162Z,101105.70
2018-06-08T11:50:46.741Z,101108.65
2018-06-08T11:51:52.253Z,101111.14
2018-06-08T11:52:57.825Z,101107.05
2018-06-08T11:54:03.408Z,101107.38
2018-06-08T11:55:09.076Z,101101.62
2018-06-08T11:56:14.762Z,101104.27
2018-06-08T11:57:20.169Z,101110.86
2018-06-08T11:58:25.635Z,101108.78
2018-06-08T11:59:31.164Z,101100.98
2018-06-08T12:00:36.620Z,101099.25
2018-06-08T12:01:42.519Z,101096.44
2018-06-08T12:02:47.955Z,101101.22
2018-06-08T12:03:53.378Z,101100.54
2018-06-08T12:04:58.954Z,101098.07
2018-06-08T12:06:04.442Z,101102.17
2018-06-08T12:07:09.886Z,101102.46
2018-06-08T12:08:15.295Z,101106.18
2018-06-08T12:09:20.788Z,101103.47
2018-06-08T12:10:26.249Z,101109.84
2018-06-08T12:11:31.696Z,101106.58
2018-06-08T12:12:37.122Z,101102.07
2018-06-08T12:13:42.638Z,101097.70
2018-06-08T12:14:48.072Z,101103.00
2018-06-08T12:15:53.497Z,101101.97
2018-06-08T12:16:58.943Z,101099.29
2018-06-08T12:18:04.386Z,101094.78
2018-06-08T12:19:10.016Z,101095.30
2018-06-08T12:20:15.434Z,101097.08
2018-06-08T12:21:20.833Z,101094.16
2018-06-08T12:22:26.357Z,101098.80
2018-06-08T12:23:31.888Z,101102.31
2018-06-08T12:24:37.527Z,101101.89
2018-06-08T12:25:42.970Z,101101.09
2018-06-08T12:26:48.540Z,101103.60
2018-06-08T12:27:53.957Z,101102.16